createdAt,value
2023-05-09T00:00:25.995Z,5.00
2023-05-09T00:03:01.390Z,7.00
2023-05-09T00:05:38.606Z,6.80
2023-05-09T00:08:15.381Z,4.80
2023-05-09T00:10:51.877Z,5.50
2023-05-09T00:13:29.431Z,5.30
2023-05-09T00:16:06.858Z,6.60
2023-05-09T00:18:43.828Z,8.10
2023-05-09T00:21:20.614Z,6.70
2023-05-09T00:23:57.258Z,6.70
2023-05-09T00:26:35.124Z,7.40
2023-05-09T00:29:11.973Z,7.10
2023-05-09T00:31:48.589Z,6.00
2023-05-09T00:34:24.461Z,6.00
2023-05-09T00:37:01.688Z,6.80
2023-05-09T00:39:38.730Z,6.00
2023-05-09T00:42:15.677Z,8.40
2023-05-09T00:44:52.778Z,7.90
2023-05-09T00:47:33.423Z,5.90
2023-05-09T00:50:14.015Z,6.80
2023-05-09T00:52:50.631Z,5.80
2023-05-09T00:55:27.965Z,6.80
2023-05-09T00:58:04.174Z,5.70
2023-05-09T01:00:40.881Z,6.00
2023-05-09T01:03:17.450Z,5.90
2023-05-09T01:06:04.362Z,8.20
2023-05-09T01:08:58.320Z,7.10
2023-05-09T01:11:43.693Z,7.50
2023-05-09T01:14:40.273Z,7.70
2023-05-09T01:17:26.267Z,6.80
2023-05-09T01:20:13.259Z,5.90
2023-05-09T01:22:59.384Z,4.40
2023-05-09T01:25:57.622Z,5.30
2023-05-09T01:29:05.189Z,5.60
2023-05-09T01:31:44.773Z,4.60
2023-05-09T01:34:25.821Z,5.30
2023-05-09T01:37:05.400Z,4.90
2023-05-09T01:39:48.496Z,5.20
2023-05-09T01:42:28.128Z,5.40
2023-05-09T01:45:07.126Z,5.50
2023-05-09T01:47:46.038Z,5.20
2023-05-09T01:50:26.202Z,5.50
2023-05-09T01:53:05.785Z,5.80
2023-05-09T01:55:45.513Z,5.40
2023-05-09T01:58:24.913Z,5.80
2023-05-09T02:01:02.425Z,5.60
2023-05-09T02:03:40.345Z,6.60
2023-05-09T02:06:19.715Z,5.00
2023-05-09T02:08:56.464Z,5.20
2023-05-09T02:11:35.135Z,5.60
2023-05-09T02:14:11.659Z,5.00
2023-05-09T02:16:48.447Z,5.50
2023-05-09T02:19:24.997Z,5.30
2023-05-09T02:22:01.897Z,4.90
2023-05-09T02:24:40.412Z,3.60
2023-05-09T02:27:18.786Z,5.50
2023-05-09T02:30:04.258Z,8.50
2023-05-09T02:32:42.675Z,5.30
2023-05-09T02:35:22.199Z,7.40
2023-05-09T02:38:00.758Z,4.80
2023-05-09T02:40:38.877Z,4.50
2023-05-09T02:43:15.352Z,6.20
2023-05-09T02:45:51.760Z,4.60
2023-05-09T02:48:29.267Z,4.10
2023-05-09T02:51:05.873Z,4.80
2023-05-09T02:53:42.890Z,3.70
2023-05-09T02:56:20.067Z,4.50
2023-05-09T02:58:57.049Z,4.70
2023-05-09T03:01:34.680Z,4.50
2023-05-09T03:04:13.032Z,4.70
2023-05-09T03:06:48.977Z,4.70
2023-05-09T03:09:25.780Z,4.90
2023-05-09T03:12:02.644Z,4.50
2023-05-09T03:14:39.289Z,4.50
2023-05-09T03:17:17.793Z,4.80
2023-05-09T03:19:54.564Z,4.00
2023-05-09T03:22:30.978Z,4.70
2023-05-09T03:25:13.017Z,4.40
2023-05-09T03:27:49.339Z,4.30
2023-05-09T03:30:26.716Z,5.30
2023-05-09T03:33:05.280Z,4.50
2023-05-09T03:35:41.227Z,6.30
2023-05-09T03:38:18.175Z,3.90
2023-05-09T03:40:56.495Z,4.30
2023-05-09T03:43:32.958Z,6.60
2023-05-09T03:46:09.560Z,5.20
2023-05-09T03:48:45.965Z,5.20
2023-05-09T03:51:23.175Z,4.40
2023-05-09T03:54:00.230Z,4.40
2023-05-09T03:56:36.149Z,4.20
2023-05-09T03:59:13.490Z,4.10
2023-05-09T04:01:49.664Z,4.60
2023-05-09T04:04:25.797Z,4.60
2023-05-09T04:07:02.468Z,4.30
2023-05-09T04:09:41.538Z,4.30
2023-05-09T04:12:17.722Z,6.10
2023-05-09T04:14:54.010Z,4.70
2023-05-09T04:17:30.824Z,5.50
2023-05-09T04:20:08.684Z,5.80
2023-05-09T04:22:46.937Z,4.60
2023-05-09T04:25:26.014Z,4.20
2023-05-09T04:28:01.810Z,4.50
2023-05-09T04:30:38.700Z,4.60
2023-05-09T04:33:15.364Z,5.00
2023-05-09T04:35:52.001Z,5.30
2023-05-09T04:38:28.812Z,6.60
2023-05-09T04:41:05.339Z,4.90
2023-05-09T04:43:42.013Z,6.80
2023-05-09T04:46:18.828Z,4.20
2023-05-09T04:48:55.331Z,4.60
2023-05-09T04:51:31.829Z,5.90
2023-05-09T04:54:09.567Z,4.50
2023-05-09T04:56:47.428Z,5.40
2023-05-09T04:59:25.888Z,4.20
2023-05-09T05:02:02.968Z,5.00
2023-05-09T05:04:39.850Z,7.10
2023-05-09T05:07:15.952Z,6.10
2023-05-09T05:09:52.951Z,5.90
2023-05-09T05:12:29.507Z,6.60
2023-05-09T05:15:06.865Z,6.20
2023-05-09T05:17:43.887Z,8.20
2023-05-09T05:20:21.344Z,6.00
2023-05-09T05:22:59.344Z,6.90
2023-05-09T05:25:35.875Z,5.60
2023-05-09T05:28:12.750Z,6.00
2023-05-09T05:30:50.618Z,5.70
2023-05-09T05:33:26.934Z,7.80
2023-05-09T05:36:04.645Z,5.70
2023-05-09T05:38:40.674Z,6.70
2023-05-09T05:41:17.704Z,5.70
2023-05-09T05:43:55.419Z,6.20
2023-05-09T05:46:32.392Z,4.70
2023-05-09T05:49:09.593Z,6.90
2023-05-09T05:51:45.677Z,5.20
2023-05-09T05:54:22.216Z,5.00
2023-05-09T05:56:59.315Z,5.60
2023-05-09T05:59:36.238Z,5.80
2023-05-09T06:02:13.222Z,5.20
2023-05-09T06:04:50.039Z,8.00
2023-05-09T06:07:27.698Z,7.00
2023-05-09T06:10:03.722Z,7.10
2023-05-09T06:12:39.678Z,6.00
2023-05-09T06:15:20.705Z,6.70
2023-05-09T06:17:59.085Z,5.70
2023-05-09T06:20:36.045Z,13.40
2023-05-09T06:23:12.875Z,6.90
2023-05-09T06:25:49.486Z,7.00
2023-05-09T06:28:25.785Z,6.30
2023-05-09T06:31:03.145Z,6.20
2023-05-09T06:33:39.842Z,6.50
2023-05-09T06:36:17.492Z,6.90
2023-05-09T06:38:54.558Z,5.50
2023-05-09T06:41:31.363Z,6.20
2023-05-09T06:44:10.274Z,8.90
2023-05-09T06:46:46.984Z,6.90
2023-05-09T06:49:23.944Z,11.30
2023-05-09T06:52:01.215Z,6.70
2023-05-09T06:54:38.096Z,7.10
2023-05-09T06:57:15.004Z,5.70
2023-05-09T06:59:51.711Z,6.20
2023-05-09T07:02:28.902Z,8.40
2023-05-09T07:05:07.012Z,6.30
2023-05-09T07:07:43.733Z,5.80
2023-05-09T07:10:22.393Z,6.40
2023-05-09T07:12:59.031Z,7.30
2023-05-09T07:15:42.289Z,6.10
2023-05-09T07:18:20.164Z,6.40
2023-05-09T07:20:57.443Z,9.70
2023-05-09T07:23:35.456Z,6.50
2023-05-09T07:26:13.590Z,5.90
2023-05-09T07:28:50.989Z,5.20
2023-05-09T07:31:28.738Z,8.70
2023-05-09T07:34:08.005Z,5.10
2023-05-09T07:36:45.193Z,5.90
2023-05-09T07:39:22.053Z,6.30
2023-05-09T07:41:59.616Z,7.50
2023-05-09T07:44:38.012Z,6.90
2023-05-09T07:47:16.112Z,6.50
2023-05-09T07:49:53.867Z,5.40
2023-05-09T07:52:31.275Z,6.30
2023-05-09T07:55:12.585Z,6.80
2023-05-09T07:57:50.272Z,6.10
2023-05-09T08:00:30.544Z,6.70
2023-05-09T08:03:08.239Z,5.70
2023-05-09T08:05:49.925Z,5.20
2023-05-09T08:08:27.371Z,5.50
2023-05-09T08:11:07.594Z,5.20
2023-05-09T08:13:45.244Z,6.80
2023-05-09T08:16:22.298Z,5.20
2023-05-09T08:19:00.164Z,6.90
2023-05-09T08:21:37.499Z,6.40
2023-05-09T08:24:18.197Z,5.40
2023-05-09T08:26:55.529Z,5.40
2023-05-09T08:29:32.963Z,6.80
2023-05-09T08:32:10.110Z,5.70
2023-05-09T08:34:48.124Z,4.40
2023-05-09T08:37:26.532Z,5.00
2023-05-09T08:40:04.469Z,5.40
2023-05-09T08:42:43.108Z,5.30
2023-05-09T08:45:32.329Z,4.40
2023-05-09T08:48:11.903Z,5.50
2023-05-09T08:50:51.106Z,4.60
2023-05-09T08:53:27.861Z,5.30
2023-05-09T08:56:06.298Z,6.80
2023-05-09T08:58:44.299Z,4.50
2023-05-09T09:01:23.350Z,5.00
2023-05-09T09:03:59.846Z,5.20
2023-05-09T09:06:39.389Z,7.70
2023-05-09T09:09:17.042Z,7.20
2023-05-09T09:11:55.686Z,8.10
2023-05-09T09:14:40.959Z,5.40
2023-05-09T09:17:23.074Z,6.50
2023-05-09T09:20:01.455Z,7.90
2023-05-09T09:22:40.424Z,9.50
2023-05-09T09:25:18.468Z,6.60
2023-05-09T09:27:55.924Z,7.60
2023-05-09T09:30:34.292Z,6.80
2023-05-09T09:33:21.052Z,6.60
2023-05-09T09:36:00.388Z,7.40
2023-05-09T09:38:47.298Z,7.30
2023-05-09T09:41:24.587Z,6.90
2023-05-09T09:44:02.442Z,5.60
2023-05-09T09:46:51.009Z,5.90
2023-05-09T09:49:29.811Z,8.20
2023-05-09T09:52:07.716Z,6.90
2023-05-09T09:54:45.372Z,6.70
2023-05-09T09:57:44.517Z,6.70
2023-05-09T10:00:33.168Z,8.80
2023-05-09T10:03:17.149Z,7.20
2023-05-09T10:06:06.998Z,5.60
2023-05-09T10:08:48.174Z,4.80
2023-05-09T10:11:26.902Z,7.30
2023-05-09T10:14:03.770Z,7.70
2023-05-09T10:16:44.264Z,5.00
2023-05-09T10:19:25.679Z,6.10
2023-05-09T10:22:08.229Z,7.20
2023-05-09T10:25:05.609Z,6.50
2023-05-09T10:27:49.362Z,5.60
2023-05-09T10:30:36.244Z,7.60
2023-05-09T10:33:18.532Z,5.60
2023-05-09T10:35:58.726Z,6.80
2023-05-09T10:38:36.250Z,6.30
2023-05-09T10:41:14.528Z,5.40
2023-05-09T10:43:53.026Z,4.50
2023-05-09T10:46:33.550Z,7.90
2023-05-09T10:49:13.039Z,7.40
2023-05-09T10:51:52.571Z,6.40
2023-05-09T10:54:38.996Z,7.80
2023-05-09T10:57:21.335Z,6.20
2023-05-09T11:00:00.340Z,4.70
2023-05-09T11:02:39.053Z,5.00
2023-05-09T11:05:41.680Z,4.90
2023-05-09T11:08:31.005Z,5.00
2023-05-09T11:11:26.467Z,5.50
2023-05-09T11:14:05.345Z,5.10
2023-05-09T11:17:05.903Z,5.10
2023-05-09T11:20:04.065Z,5.00
2023-05-09T11:22:47.834Z,5.90
2023-05-09T11:25:31.166Z,5.90
2023-05-09T11:28:09.578Z,5.30
2023-05-09T11:30:47.366Z,6.50
2023-05-09T11:33:39.214Z,6.10
2023-05-09T11:36:34.620Z,5.60
2023-05-09T11:39:14.239Z,5.20
2023-05-09T11:41:52.015Z,5.00
2023-05-09T11:44:31.122Z,6.60
2023-05-09T11:47:09.609Z,6.80
2023-05-09T11:49:47.371Z,5.50
2023-05-09T11:52:24.751Z,7.30
2023-05-09T11:55:03.663Z,8.30
2023-05-09T11:57:42.294Z,6.70
2023-05-09T12:00:28.594Z,7.90
2023-05-09T12:03:08.461Z,6.50
2023-05-09T12:05:45.940Z,7.60
2023-05-09T12:08:24.407Z,6.80
2023-05-09T12:11:13.088Z,6.60
2023-05-09T12:13:57.441Z,7.20
2023-05-09T12:16:35.082Z,7.50
2023-05-09T12:19:14.513Z,7.30
2023-05-09T12:21:51.007Z,7.10
2023-05-09T12:24:31.185Z,6.10
2023-05-09T12:27:08.799Z,8.00
2023-05-09T12:29:46.297Z,5.90
2023-05-09T12:32:31.793Z,6.00
2023-05-09T12:35:11.540Z,5.60
2023-05-09T12:38:01.164Z,8.80
2023-05-09T12:40:39.323Z,9.30
2023-05-09T12:43:16.289Z,7.00
2023-05-09T12:45:57.561Z,6.70
2023-05-09T12:48:38.762Z,7.30
2023-05-09T12:51:20.904Z,8.70
2023-05-09T12:53:58.162Z,9.40
2023-05-09T12:56:39.701Z,8.70
2023-05-09T12:59:23.079Z,9.10
2023-05-09T13:02:04.769Z,8.50
2023-05-09T13:04:42.282Z,8.80
2023-05-09T13:07:19.559Z,7.10
2023-05-09T13:10:06.634Z,9.20
2023-05-09T13:12:48.629Z,10.30
2023-05-09T13:15:27.236Z,9.00
2023-05-09T13:18:03.925Z,8.00
2023-05-09T13:20:40.904Z,8.60
2023-05-09T13:23:17.868Z,8.70
2023-05-09T13:25:57.017Z,8.10
2023-05-09T13:28:35.173Z,9.40
2023-05-09T13:31:12.753Z,9.10
2023-05-09T13:33:51.970Z,9.20
2023-05-09T13:36:30.502Z,7.90
2023-05-09T13:39:08.125Z,10.50
2023-05-09T13:41:46.871Z,6.60
2023-05-09T13:44:23.917Z,7.60
2023-05-09T13:47:01.165Z,11.60
2023-05-09T13:49:38.924Z,8.30
2023-05-09T13:52:17.991Z,8.70
2023-05-09T13:54:55.942Z,7.60
2023-05-09T13:57:33.134Z,7.00
2023-05-09T14:00:16.002Z,7.80
2023-05-09T14:02:54.491Z,8.30
2023-05-09T14:05:31.982Z,7.80
2023-05-09T14:08:10.049Z,9.60
2023-05-09T14:10:47.520Z,8.50
2023-05-09T14:13:25.406Z,9.00
2023-05-09T14:16:02.697Z,7.10
2023-05-09T14:18:40.736Z,7.90
2023-05-09T14:21:20.120Z,9.60
2023-05-09T14:23:57.291Z,6.80
2023-05-09T14:26:35.146Z,7.90
2023-05-09T14:29:12.843Z,9.70
2023-05-09T14:31:49.993Z,6.50
2023-05-09T14:34:27.673Z,6.50
2023-05-09T14:37:06.701Z,7.90
2023-05-09T14:39:45.135Z,7.30
2023-05-09T14:42:22.666Z,7.70
2023-05-09T14:45:00.285Z,6.50
2023-05-09T14:47:37.819Z,14.50
2023-05-09T14:50:18.586Z,11.00
2023-05-09T14:52:55.959Z,7.10
2023-05-09T14:55:35.145Z,6.60
2023-05-09T14:58:13.900Z,7.50
2023-05-09T15:00:50.669Z,7.90
2023-05-09T15:03:27.938Z,8.70
2023-05-09T15:06:06.826Z,8.00
2023-05-09T15:08:45.027Z,6.70
2023-05-09T15:11:22.562Z,9.00
2023-05-09T15:14:01.171Z,10.80
2023-05-09T15:16:39.332Z,8.90
2023-05-09T15:19:17.141Z,9.00
2023-05-09T15:21:55.551Z,8.30
2023-05-09T15:24:34.679Z,7.10
2023-05-09T15:27:12.558Z,8.30
2023-05-09T15:29:50.086Z,7.70
2023-05-09T15:32:27.511Z,10.10
2023-05-09T15:35:07.029Z,9.90
2023-05-09T15:37:44.302Z,7.00
2023-05-09T15:40:23.027Z,9.30
2023-05-09T15:43:01.584Z,7.40
2023-05-09T15:45:51.693Z,6.90
2023-05-09T15:48:31.741Z,10.10
2023-05-09T15:51:11.555Z,10.20
2023-05-09T15:53:48.313Z,9.70
2023-05-09T15:56:25.742Z,8.50
2023-05-09T15:59:03.303Z,7.40
2023-05-09T16:01:41.420Z,8.60
2023-05-09T16:04:20.282Z,9.80
2023-05-09T16:07:01.485Z,8.80
2023-05-09T16:09:38.870Z,7.30
2023-05-09T16:12:16.720Z,7.30
2023-05-09T16:14:53.855Z,7.60
2023-05-09T16:17:32.421Z,8.80
2023-05-09T16:20:15.636Z,10.90
2023-05-09T16:22:54.330Z,8.20
2023-05-09T16:25:34.536Z,8.90
2023-05-09T16:28:14.654Z,7.90
2023-05-09T16:30:53.994Z,10.00
2023-05-09T16:33:32.725Z,7.60
2023-05-09T16:36:12.964Z,9.10
2023-05-09T16:38:51.790Z,8.90
2023-05-09T16:41:30.524Z,9.20
2023-05-09T16:44:09.425Z,8.40
2023-05-09T16:46:47.448Z,8.60
2023-05-09T16:49:25.154Z,7.80
2023-05-09T16:52:04.976Z,7.30
2023-05-09T16:54:44.234Z,11.40
2023-05-09T16:57:22.920Z,8.90
2023-05-09T17:00:04.149Z,9.20
2023-05-09T17:02:43.547Z,10.60
2023-05-09T17:05:23.825Z,9.30
2023-05-09T17:08:02.842Z,7.50
2023-05-09T17:10:42.501Z,8.50
2023-05-09T17:13:21.834Z,8.60
2023-05-09T17:16:01.806Z,8.60
2023-05-09T17:18:39.802Z,8.30
2023-05-09T17:21:16.253Z,6.60
2023-05-09T17:23:54.149Z,8.90
2023-05-09T17:26:33.934Z,7.40
2023-05-09T17:29:11.629Z,10.60
2023-05-09T17:31:51.321Z,9.30
2023-05-09T17:34:31.488Z,7.40
2023-05-09T17:37:12.006Z,8.10
2023-05-09T17:39:51.947Z,8.60
2023-05-09T17:42:32.004Z,9.60
2023-05-09T17:45:14.883Z,9.20
2023-05-09T17:47:52.637Z,9.20
2023-05-09T17:50:30.452Z,9.00
2023-05-09T17:53:10.971Z,7.80
2023-05-09T17:55:49.361Z,8.60
2023-05-09T17:58:27.861Z,11.90
2023-05-09T18:01:06.222Z,10.40
2023-05-09T18:03:46.188Z,9.50
2023-05-09T18:06:25.312Z,10.00
2023-05-09T18:09:03.419Z,8.80
2023-05-09T18:11:42.446Z,9.20
2023-05-09T18:14:21.264Z,8.40
2023-05-09T18:17:00.267Z,9.70
2023-05-09T18:19:40.247Z,11.50
2023-05-09T18:22:20.653Z,8.50
2023-05-09T18:24:59.742Z,8.20
2023-05-09T18:27:37.445Z,9.80
2023-05-09T18:30:22.470Z,8.00
2023-05-09T18:33:03.051Z,11.90
2023-05-09T18:35:41.312Z,8.50
2023-05-09T18:38:19.110Z,8.90
2023-05-09T18:40:57.508Z,8.50
2023-05-09T18:43:36.391Z,9.10
2023-05-09T18:46:17.918Z,6.80
2023-05-09T18:48:58.491Z,8.00
2023-05-09T18:51:37.202Z,8.70
2023-05-09T18:54:18.172Z,9.90
2023-05-09T18:56:58.544Z,7.80
2023-05-09T18:59:38.079Z,7.90
2023-05-09T19:02:18.247Z,6.60
2023-05-09T19:04:56.608Z,7.90
2023-05-09T19:07:36.194Z,7.80
2023-05-09T19:10:18.679Z,8.80
2023-05-09T19:12:56.886Z,6.30
2023-05-09T19:15:34.795Z,6.30
2023-05-09T19:18:14.507Z,6.50
2023-05-09T19:20:52.550Z,9.80
2023-05-09T19:23:29.626Z,7.10
2023-05-09T19:26:07.327Z,6.10
2023-05-09T19:28:45.336Z,8.40
2023-05-09T19:31:23.692Z,7.80
2023-05-09T19:34:01.683Z,9.00
2023-05-09T19:36:38.537Z,9.90
2023-05-09T19:39:16.878Z,7.10
2023-05-09T19:41:54.394Z,10.50
2023-05-09T19:44:33.058Z,8.50
2023-05-09T19:47:10.451Z,8.10
2023-05-09T19:49:47.989Z,6.40
2023-05-09T19:52:26.348Z,10.10
2023-05-09T19:55:03.099Z,9.70
2023-05-09T19:57:42.124Z,7.90
2023-05-09T20:00:25.213Z,6.50
2023-05-09T20:03:04.391Z,7.60
2023-05-09T20:05:41.877Z,7.80
2023-05-09T20:08:19.094Z,7.90
2023-05-09T20:10:56.961Z,6.80
2023-05-09T20:13:33.558Z,8.50
2023-05-09T20:16:11.065Z,6.70
2023-05-09T20:18:49.413Z,7.80
2023-05-09T20:21:29.220Z,4.90
2023-05-09T20:24:07.844Z,5.50
2023-05-09T20:26:45.139Z,7.00
2023-05-09T20:29:22.202Z,7.00
2023-05-09T20:31:59.866Z,6.80
2023-05-09T20:34:36.911Z,7.20
2023-05-09T20:37:13.118Z,8.10
2023-05-09T20:39:51.201Z,8.00
2023-05-09T20:42:28.384Z,6.10
2023-05-09T20:45:05.739Z,7.00
2023-05-09T20:47:43.020Z,6.20
2023-05-09T20:50:22.393Z,6.10
2023-05-09T20:52:59.575Z,6.00
2023-05-09T20:55:36.763Z,6.20
2023-05-09T20:58:15.003Z,5.60
2023-05-09T21:00:52.564Z,7.80
2023-05-09T21:03:29.715Z,7.70
2023-05-09T21:06:07.838Z,10.20
2023-05-09T21:08:44.918Z,8.30
2023-05-09T21:11:22.355Z,7.70
2023-05-09T21:13:59.709Z,9.30
2023-05-09T21:16:37.062Z,8.00
2023-05-09T21:19:15.018Z,6.60
2023-05-09T21:21:51.648Z,7.50
2023-05-09T21:24:29.156Z,8.00
2023-05-09T21:27:05.926Z,6.80
2023-05-09T21:29:43.189Z,7.20
2023-05-09T21:32:20.066Z,6.80
2023-05-09T21:34:57.165Z,7.40
2023-05-09T21:37:34.576Z,6.30
2023-05-09T21:40:18.424Z,6.40
2023-05-09T21:42:54.880Z,5.90
2023-05-09T21:45:32.711Z,6.80
2023-05-09T21:48:11.413Z,6.00
2023-05-09T21:50:50.988Z,5.60
2023-05-09T21:53:28.123Z,5.70
2023-05-09T21:56:05.218Z,5.70
2023-05-09T21:58:42.825Z,6.00
2023-05-09T22:01:21.944Z,6.30
2023-05-09T22:03:58.926Z,7.30
2023-05-09T22:06:35.637Z,6.50
2023-05-09T22:09:12.421Z,5.40
2023-05-09T22:11:48.956Z,5.40
2023-05-09T22:14:25.841Z,5.50
2023-05-09T22:17:02.341Z,6.30
2023-05-09T22:19:39.819Z,5.30
2023-05-09T22:22:17.388Z,5.00
2023-05-09T22:24:54.813Z,5.90
2023-05-09T22:27:32.965Z,5.10
2023-05-09T22:30:15.420Z,5.30
2023-05-09T22:32:53.476Z,4.10
2023-05-09T22:35:30.690Z,4.80
2023-05-09T22:38:08.228Z,3.70
2023-05-09T22:40:46.113Z,4.70
2023-05-09T22:43:25.417Z,5.50
2023-05-09T22:46:05.387Z,4.20
2023-05-09T22:48:42.168Z,4.50
2023-05-09T22:51:19.823Z,5.70
2023-05-09T22:53:56.648Z,4.60
2023-05-09T22:56:34.262Z,3.90
2023-05-09T22:59:11.880Z,4.80
2023-05-09T23:01:48.590Z,4.30
2023-05-09T23:04:25.774Z,4.60
2023-05-09T23:07:02.998Z,4.00
2023-05-09T23:09:39.198Z,5.50
2023-05-09T23:12:16.973Z,5.20
2023-05-09T23:14:54.259Z,5.50
2023-05-09T23:17:30.895Z,4.70
2023-05-09T23:20:11.321Z,4.20
2023-05-09T23:22:48.664Z,5.30
2023-05-09T23:25:26.149Z,4.30
2023-05-09T23:28:03.776Z,3.90
2023-05-09T23:30:41.374Z,4.70
2023-05-09T23:33:18.255Z,5.10
2023-05-09T23:35:56.087Z,4.90
2023-05-09T23:38:32.442Z,7.70
2023-05-09T23:41:08.360Z,5.90
2023-05-09T23:43:47.857Z,5.40
2023-05-09T23:46:26.422Z,5.10
2023-05-09T23:49:04.458Z,7.50
2023-05-09T23:51:41.737Z,5.70
2023-05-09T23:54:19.123Z,5.20
2023-05-09T23:56:56.674Z,8.90
2023-05-09T23:59:34.714Z,6.70
